Port Washington, Wisconsin
Current Conditions -  °F | °C
As of 8:10 AM on Thursday 29 Jan 2015 (Local Time) from KETB Reporting Station
Light Snow Light Snow  
Wind Chill: 20°   Ceiling: 1300
Heat Index: 30°   Visibility: 2.5mi
Dew Point: 27°   Wind: 13mph
Humidity: 86%   Direction: 320°NW
Pressure: 29.83"   Gusts: NA
Location:  43.39°N, 87.87°W
Report Text: KETB 291410Z AUTO 32011KT 2 1/2SM -SN OVC013 M01/M03 A2983 RMK AO2
Loading
Personal Weather Stations






























Interactive Weather Map New forecast layout! Learn more

10-Day Weather Forecast

Advertisements
Track Severe Weather on mobile